createdAt,value
2022-11-27T00:00:39.491Z,8.40
2022-11-27T00:03:07.446Z,8.25
2022-11-27T00:05:36.741Z,10.05
2022-11-27T00:08:04.689Z,8.13
2022-11-27T00:10:32.523Z,7.80
2022-11-27T00:13:00.322Z,8.32
2022-11-27T00:15:28.226Z,7.85
2022-11-27T00:17:56.021Z,7.28
2022-11-27T00:20:29.524Z,7.22
2022-11-27T00:22:58.937Z,8.55
2022-11-27T00:25:26.956Z,8.50
2022-11-27T00:27:54.975Z,6.57
2022-11-27T00:30:22.844Z,7.28
2022-11-27T00:32:50.668Z,7.65
2022-11-27T00:35:18.700Z,8.00
2022-11-27T00:37:46.509Z,8.20
2022-11-27T00:40:15.938Z,7.70
2022-11-27T00:42:43.835Z,8.10
2022-11-27T00:45:12.291Z,6.18
2022-11-27T00:47:40.110Z,5.50
2022-11-27T00:50:08.901Z,6.25
2022-11-27T00:52:36.741Z,6.28
2022-11-27T00:55:04.789Z,6.20
2022-11-27T00:57:33.985Z,6.45
2022-11-27T01:00:01.822Z,6.90
2022-11-27T01:02:29.674Z,6.05
2022-11-27T01:04:57.729Z,5.40
2022-11-27T01:07:27.928Z,6.38
2022-11-27T01:12:23.413Z,5.65
2022-11-27T01:14:52.620Z,6.20
2022-11-27T01:17:20.437Z,6.35
2022-11-27T01:19:48.376Z,6.47
2022-11-27T01:22:16.192Z,6.63
2022-11-27T01:24:44.565Z,7.03
2022-11-27T01:27:12.547Z,6.32
2022-11-27T01:29:40.442Z,6.32
2022-11-27T01:32:09.641Z,7.22
2022-11-27T01:34:37.535Z,7.60
2022-11-27T01:37:05.490Z,6.82
2022-11-27T01:39:33.281Z,6.13
2022-11-27T01:42:01.129Z,7.05
2022-11-27T01:44:51.027Z,6.28
2022-11-27T01:47:30.628Z,6.40
2022-11-27T01:50:06.868Z,6.78
2022-11-27T01:52:38.209Z,6.60
2022-11-27T01:55:09.932Z,6.40
2022-11-27T01:57:42.505Z,6.28
2022-11-27T02:00:14.138Z,6.55
2022-11-27T02:02:44.583Z,6.57
2022-11-27T02:05:15.341Z,5.35
2022-11-27T02:07:43.352Z,6.43
2022-11-27T02:10:12.505Z,6.50
2022-11-27T02:12:51.840Z,6.30
2022-11-27T02:15:24.421Z,6.80
2022-11-27T02:18:10.940Z,5.68
2022-11-27T02:20:48.778Z,6.40
2022-11-27T02:23:48.961Z,6.47
2022-11-27T02:26:30.537Z,6.28
2022-11-27T02:29:03.698Z,7.20
2022-11-27T02:31:39.889Z,7.00
2022-11-27T02:34:16.574Z,6.25
2022-11-27T02:36:51.778Z,6.20
2022-11-27T02:39:25.177Z,5.50
2022-11-27T02:41:58.489Z,6.45
2022-11-27T02:44:31.570Z,6.90
2022-11-27T02:47:00.041Z,7.72
2022-11-27T02:49:29.034Z,6.88
2022-11-27T02:52:00.366Z,6.78
2022-11-27T02:54:30.932Z,7.65
2022-11-27T02:57:03.728Z,5.68
2022-11-27T02:59:34.702Z,5.70
2022-11-27T03:02:06.126Z,6.60
2022-11-27T03:04:39.293Z,5.18
2022-11-27T03:07:14.039Z,6.05
2022-11-27T03:09:45.617Z,7.03
2022-11-27T03:12:19.005Z,6.28
2022-11-27T03:14:49.362Z,5.85
2022-11-27T03:17:28.816Z,5.88
2022-11-27T03:20:02.282Z,4.75
2022-11-27T03:22:31.735Z,5.28
2022-11-27T03:25:00.409Z,4.07
2022-11-27T03:27:33.677Z,6.03
2022-11-27T03:30:06.891Z,6.25
2022-11-27T03:32:35.214Z,6.28
2022-11-27T03:35:03.330Z,5.45
2022-11-27T03:37:31.278Z,5.88
2022-11-27T03:39:59.233Z,6.57
2022-11-27T03:42:31.545Z,5.82
2022-11-27T03:45:09.228Z,4.30
2022-11-27T03:47:53.338Z,4.47
2022-11-27T03:50:29.397Z,3.58
2022-11-27T03:53:09.322Z,3.97
2022-11-27T03:55:44.454Z,4.70
2022-11-27T03:58:20.252Z,4.32
2022-11-27T04:00:52.278Z,4.68
2022-11-27T04:03:26.735Z,5.15
2022-11-27T04:05:54.712Z,4.82
2022-11-27T04:08:22.945Z,4.35
2022-11-27T04:10:50.780Z,3.58
2022-11-27T04:13:18.593Z,4.38
2022-11-27T04:15:46.466Z,4.22
2022-11-27T04:18:15.987Z,3.65
2022-11-27T04:20:43.837Z,3.90
2022-11-27T04:23:11.640Z,3.97
2022-11-27T04:25:39.477Z,4.00
2022-11-27T04:28:07.276Z,4.25
2022-11-27T04:30:35.096Z,4.28
2022-11-27T04:33:02.997Z,3.55
2022-11-27T04:35:32.201Z,3.05
2022-11-27T04:38:00.231Z,3.83
2022-11-27T04:40:28.109Z,3.80
2022-11-27T04:42:56.123Z,4.10
2022-11-27T04:45:23.937Z,4.03
2022-11-27T04:47:51.771Z,4.38
2022-11-27T04:50:19.874Z,3.97
2022-11-27T04:52:49.061Z,4.57
2022-11-27T04:55:17.049Z,5.20
2022-11-27T04:57:44.914Z,4.68
2022-11-27T05:00:13.781Z,4.00
2022-11-27T05:02:41.965Z,4.97
2022-11-27T05:05:10.305Z,4.95
2022-11-27T05:07:38.814Z,4.50
2022-11-27T05:10:09.718Z,5.53
2022-11-27T05:12:37.513Z,4.70
2022-11-27T05:15:06.053Z,5.75
2022-11-27T05:17:33.851Z,5.68
2022-11-27T05:20:01.693Z,5.38
2022-11-27T05:22:29.634Z,5.05
2022-11-27T05:24:57.590Z,5.15
2022-11-27T05:27:26.788Z,5.13
2022-11-27T05:29:54.593Z,4.43
2022-11-27T05:32:22.413Z,4.93
2022-11-27T05:34:50.245Z,5.00
2022-11-27T05:37:19.998Z,5.15
2022-11-27T05:39:48.071Z,5.25
2022-11-27T05:42:15.970Z,6.35
2022-11-27T05:44:45.244Z,5.68
2022-11-27T05:47:13.065Z,5.57
2022-11-27T05:49:40.881Z,5.50
2022-11-27T05:52:08.729Z,5.30
2022-11-27T05:54:36.524Z,4.55
2022-11-27T05:57:04.344Z,5.40
2022-11-27T05:59:32.210Z,4.72
2022-11-27T06:02:01.510Z,4.25
2022-11-27T06:04:29.358Z,4.97
2022-11-27T06:06:57.169Z,5.20
2022-11-27T06:09:25.150Z,4.70
2022-11-27T06:11:53.014Z,5.15
2022-11-27T06:14:20.861Z,5.55
2022-11-27T06:16:48.866Z,5.63
2022-11-27T06:19:18.123Z,5.68
2022-11-27T06:21:46.665Z,3.90
2022-11-27T06:24:14.647Z,5.40
2022-11-27T06:26:42.658Z,4.80
2022-11-27T06:29:10.779Z,5.15
2022-11-27T06:31:39.011Z,4.88
2022-11-27T06:34:07.741Z,4.75
2022-11-27T06:36:40.000Z,5.43
2022-11-27T06:39:08.768Z,5.82
2022-11-27T06:41:36.594Z,5.00
2022-11-27T06:44:05.088Z,5.03
2022-11-27T06:46:33.112Z,5.78
2022-11-27T06:49:01.762Z,6.35
2022-11-27T06:51:31.702Z,5.18
2022-11-27T06:54:02.176Z,5.97
2022-11-27T06:56:32.112Z,5.68
2022-11-27T06:59:01.751Z,5.43
2022-11-27T07:01:32.297Z,6.05
2022-11-27T07:04:00.417Z,6.53
2022-11-27T07:06:28.630Z,6.50
2022-11-27T07:08:56.845Z,6.15
2022-11-27T07:11:27.621Z,4.80
2022-11-27T07:13:57.453Z,5.55
2022-11-27T07:16:26.150Z,6.07
2022-11-27T07:18:57.331Z,4.60
2022-11-27T07:21:25.882Z,5.70
2022-11-27T07:23:57.461Z,6.45
2022-11-27T07:26:28.358Z,6.53
2022-11-27T07:28:56.695Z,6.40
2022-11-27T07:31:28.150Z,5.82
2022-11-27T07:33:56.635Z,6.78
2022-11-27T07:36:26.498Z,7.15
2022-11-27T07:38:54.366Z,7.45
2022-11-27T07:41:22.337Z,7.57
2022-11-27T07:43:51.677Z,7.25
2022-11-27T07:46:22.999Z,7.28
2022-11-27T07:48:51.014Z,6.53
2022-11-27T07:51:20.788Z,5.63
2022-11-27T07:53:48.729Z,9.68
2022-11-27T07:56:17.139Z,8.88
2022-11-27T07:58:45.277Z,8.48
2022-11-27T08:01:17.157Z,8.55
2022-11-27T08:03:45.444Z,8.00
2022-11-27T08:06:19.264Z,5.03
2022-11-27T08:08:47.464Z,5.60
2022-11-27T08:11:20.537Z,5.15
2022-11-27T08:13:48.551Z,5.75
2022-11-27T08:16:18.090Z,5.15
2022-11-27T08:18:45.934Z,4.85
2022-11-27T08:21:13.912Z,5.88
2022-11-27T08:23:41.859Z,5.10
2022-11-27T08:26:10.932Z,4.88
2022-11-27T08:28:40.164Z,4.93
2022-11-27T08:31:10.702Z,4.63
2022-11-27T08:33:39.968Z,5.75
2022-11-27T08:36:12.565Z,3.80
2022-11-27T08:38:42.965Z,5.45
2022-11-27T08:41:10.866Z,6.35
2022-11-27T08:43:38.845Z,5.43
2022-11-27T08:46:08.056Z,5.53
2022-11-27T08:48:36.414Z,5.40
2022-11-27T08:51:09.075Z,5.75
2022-11-27T08:53:37.743Z,5.93
2022-11-27T08:56:11.200Z,6.22
2022-11-27T08:58:41.072Z,7.20
2022-11-27T09:01:10.657Z,5.88
2022-11-27T09:03:38.766Z,6.68
2022-11-27T09:06:16.651Z,6.72
2022-11-27T09:08:45.477Z,6.28
2022-11-27T09:11:14.697Z,6.63
2022-11-27T09:13:43.429Z,7.50
2022-11-27T09:16:16.873Z,7.38
2022-11-27T09:18:45.757Z,6.88
2022-11-27T09:21:17.033Z,8.27
2022-11-27T09:23:45.100Z,7.38
2022-11-27T09:26:15.751Z,7.75
2022-11-27T09:28:47.114Z,6.80
2022-11-27T09:31:16.702Z,7.43
2022-11-27T09:33:48.265Z,7.32
2022-11-27T09:36:19.425Z,7.43
2022-11-27T09:38:47.389Z,7.40
2022-11-27T09:41:39.921Z,8.23
2022-11-27T09:44:20.725Z,7.65
2022-11-27T09:46:49.456Z,7.53
2022-11-27T09:49:22.550Z,6.70
2022-11-27T09:51:57.610Z,8.02
2022-11-27T09:54:29.712Z,7.22
2022-11-27T09:56:59.043Z,7.10
2022-11-27T09:59:36.333Z,7.77
2022-11-27T10:02:04.238Z,7.25
2022-11-27T10:04:50.959Z,7.90
2022-11-27T10:07:34.648Z,8.05
2022-11-27T10:10:22.449Z,7.13
2022-11-27T10:13:02.970Z,7.05
2022-11-27T10:15:41.469Z,7.50
2022-11-27T10:18:17.318Z,6.88
2022-11-27T10:20:49.868Z,7.05
2022-11-27T10:23:41.451Z,8.02
2022-11-27T10:26:16.977Z,8.43
2022-11-27T10:28:55.821Z,10.15
2022-11-27T10:31:32.864Z,8.98
2022-11-27T10:34:03.855Z,8.93
2022-11-27T10:36:37.073Z,8.77
2022-11-27T10:39:17.023Z,9.07
2022-11-27T10:41:51.174Z,7.50
2022-11-27T10:44:29.137Z,7.72
2022-11-27T10:47:02.552Z,9.07
2022-11-27T10:49:30.433Z,9.10
2022-11-27T10:51:58.277Z,9.38
2022-11-27T10:54:32.355Z,10.20
2022-11-27T10:57:38.515Z,10.30
2022-11-27T11:00:14.868Z,9.73
2022-11-27T11:02:42.794Z,9.70
2022-11-27T11:05:32.779Z,9.10
2022-11-27T11:08:04.794Z,9.60
2022-11-27T11:10:37.393Z,9.70
2022-11-27T11:13:07.459Z,9.55
2022-11-27T11:15:35.298Z,9.55
2022-11-27T11:18:03.153Z,9.57
2022-11-27T11:20:31.288Z,10.38
2022-11-27T11:22:59.171Z,10.23
2022-11-27T11:25:27.006Z,10.85
2022-11-27T11:27:56.680Z,10.77
2022-11-27T11:30:27.361Z,7.40
2022-11-27T11:33:01.786Z,9.60
2022-11-27T11:35:34.680Z,9.73
2022-11-27T11:38:05.001Z,8.65
2022-11-27T11:40:35.125Z,9.70
2022-11-27T11:43:10.008Z,9.57
2022-11-27T11:45:48.857Z,10.10
2022-11-27T11:48:23.721Z,9.57
2022-11-27T11:50:55.545Z,9.40
2022-11-27T11:53:31.973Z,10.38
2022-11-27T11:56:06.909Z,9.65
2022-11-27T11:58:51.726Z,10.52
2022-11-27T12:01:33.723Z,10.40
2022-11-27T12:04:15.892Z,10.90
2022-11-27T12:06:56.526Z,10.75
2022-11-27T12:09:39.265Z,9.25
2022-11-27T12:12:19.766Z,9.95
2022-11-27T12:14:56.132Z,8.15
2022-11-27T12:17:45.223Z,7.82
2022-11-27T12:20:22.593Z,8.88
2022-11-27T12:23:29.353Z,8.98
2022-11-27T12:26:07.513Z,9.07
2022-11-27T12:28:53.258Z,9.73
2022-11-27T12:31:41.003Z,10.00
2022-11-27T12:34:17.866Z,9.63
2022-11-27T12:37:13.911Z,8.93
2022-11-27T12:39:56.417Z,9.55
2022-11-27T12:42:30.431Z,9.55
2022-11-27T12:45:04.925Z,9.32
2022-11-27T12:47:40.447Z,8.23
2022-11-27T12:50:16.242Z,8.20
2022-11-27T12:52:47.125Z,9.98
2022-11-27T12:55:19.715Z,9.68
2022-11-27T12:57:50.547Z,8.02
2022-11-27T13:00:21.022Z,9.23
2022-11-27T13:03:04.137Z,7.57
2022-11-27T13:05:36.521Z,8.23
2022-11-27T13:08:11.881Z,7.95
2022-11-27T13:10:42.599Z,8.27
2022-11-27T13:13:15.642Z,9.25
2022-11-27T13:15:49.959Z,7.75
2022-11-27T13:18:23.080Z,8.70
2022-11-27T13:20:53.008Z,7.65
2022-11-27T13:23:21.240Z,8.15
2022-11-27T13:25:53.337Z,7.93
2022-11-27T13:28:31.652Z,8.05
2022-11-27T13:31:01.824Z,8.38
2022-11-27T13:36:08.043Z,7.25
2022-11-27T13:38:41.302Z,7.22
2022-11-27T13:41:09.646Z,7.85
2022-11-27T13:43:44.631Z,6.93
2022-11-27T13:46:20.569Z,7.13
2022-11-27T13:48:53.705Z,7.47
2022-11-27T13:51:28.476Z,7.07
2022-11-27T13:54:09.356Z,7.00
2022-11-27T13:56:37.537Z,7.03
2022-11-27T13:59:15.497Z,7.32
2022-11-27T14:01:58.039Z,6.90
2022-11-27T14:04:28.285Z,7.55
2022-11-27T14:12:17.951Z,7.13
2022-11-27T14:14:58.199Z,7.13
2022-11-27T14:20:22.103Z,6.45
2022-11-27T14:23:11.205Z,7.38
2022-11-27T14:25:39.776Z,8.45
2022-11-27T14:28:15.521Z,7.38
2022-11-27T14:30:48.122Z,7.50
2022-11-27T14:33:19.253Z,7.60
2022-11-27T14:35:51.611Z,7.07
2022-11-27T14:38:19.837Z,6.97
2022-11-27T14:40:48.513Z,8.27
2022-11-27T14:43:18.205Z,8.75
2022-11-27T14:45:48.246Z,9.63
2022-11-27T14:48:24.809Z,9.63
2022-11-27T14:50:56.749Z,8.00
2022-11-27T14:53:27.729Z,9.27
2022-11-27T14:55:58.852Z,7.75
2022-11-27T14:58:28.398Z,7.93
2022-11-27T15:00:59.842Z,7.68
2022-11-27T15:03:28.045Z,7.72
2022-11-27T15:05:59.654Z,8.40
2022-11-27T15:08:28.601Z,7.72
2022-11-27T15:10:58.696Z,8.70
2022-11-27T15:13:28.759Z,7.93
2022-11-27T15:16:04.304Z,17.17
2022-11-27T15:18:37.356Z,10.25
2022-11-27T15:21:11.668Z,9.23
2022-11-27T15:23:44.853Z,8.30
2022-11-27T15:26:17.819Z,9.73
2022-11-27T15:28:53.524Z,8.68
2022-11-27T15:31:30.786Z,8.70
2022-11-27T15:34:01.960Z,9.65
2022-11-27T15:36:38.643Z,9.98
2022-11-27T15:39:19.013Z,8.57
2022-11-27T15:41:58.309Z,9.27
2022-11-27T15:44:28.237Z,9.47
2022-11-27T15:46:57.721Z,9.75
2022-11-27T15:49:25.645Z,10.55
2022-11-27T15:51:56.260Z,10.85
2022-11-27T15:54:24.871Z,11.05
2022-11-27T15:56:53.138Z,10.32
2022-11-27T15:59:21.130Z,9.57
2022-11-27T16:01:49.973Z,12.07
2022-11-27T16:04:18.099Z,11.88
2022-11-27T16:06:45.931Z,13.98
2022-11-27T16:09:15.149Z,15.20
2022-11-27T16:11:43.401Z,12.43
2022-11-27T16:14:11.840Z,13.98
2022-11-27T16:16:39.951Z,19.15
2022-11-27T16:19:07.946Z,15.45
2022-11-27T16:21:36.539Z,18.20
2022-11-27T16:24:06.421Z,16.95
2022-11-27T16:26:36.816Z,12.50
2022-11-27T16:29:05.089Z,13.25
2022-11-27T16:31:33.195Z,12.85
2022-11-27T16:34:02.136Z,13.70
2022-11-27T16:36:30.486Z,13.10
2022-11-27T16:38:58.320Z,13.98
2022-11-27T16:41:26.372Z,15.32
2022-11-27T16:43:57.508Z,12.85
2022-11-27T16:46:27.289Z,13.77
2022-11-27T16:48:56.030Z,15.20
2022-11-27T16:51:25.585Z,13.57
2022-11-27T16:53:55.324Z,12.40
2022-11-27T16:56:25.816Z,12.18
2022-11-27T16:59:00.964Z,14.20
2022-11-27T17:01:32.253Z,12.80
2022-11-27T17:04:01.066Z,13.93
2022-11-27T17:06:31.356Z,16.67
2022-11-27T17:09:00.971Z,13.88
2022-11-27T17:11:30.768Z,13.48
2022-11-27T17:14:02.308Z,11.48
2022-11-27T17:16:30.260Z,11.05
2022-11-27T17:18:58.159Z,12.45
2022-11-27T17:21:28.602Z,11.55
2022-11-27T17:23:57.137Z,11.85
2022-11-27T17:26:26.855Z,11.10
2022-11-27T17:28:56.296Z,11.20
2022-11-27T17:31:27.931Z,11.10
2022-11-27T17:33:56.752Z,13.30
2022-11-27T17:36:24.858Z,11.07
2022-11-27T17:38:53.676Z,9.30
2022-11-27T17:41:22.592Z,10.45
2022-11-27T17:43:51.142Z,11.88
2022-11-27T17:46:20.486Z,9.02
2022-11-27T17:48:50.626Z,9.80
2022-11-27T17:53:46.864Z,20.70
2022-11-27T17:56:16.900Z,22.80
2022-11-27T17:58:45.066Z,12.15
2022-11-27T18:01:17.868Z,13.07
2022-11-27T18:03:47.163Z,11.75
2022-11-27T18:06:17.381Z,13.00
2022-11-27T18:11:15.393Z,9.95
2022-11-27T18:13:43.224Z,13.00
2022-11-27T18:16:13.273Z,11.25
2022-11-27T18:18:42.021Z,11.65
2022-11-27T18:21:16.697Z,11.00
2022-11-27T18:24:21.858Z,10.32
2022-11-27T18:29:24.151Z,13.07
2022-11-27T18:31:53.353Z,12.18
2022-11-27T18:34:21.390Z,11.17
2022-11-27T18:36:49.222Z,11.18
2022-11-27T18:39:18.610Z,9.75
2022-11-27T18:41:46.441Z,9.10
2022-11-27T18:44:14.318Z,10.65
2022-11-27T18:46:42.129Z,9.23
2022-11-27T18:49:09.972Z,9.52
2022-11-27T18:51:37.833Z,10.93
2022-11-27T18:54:05.888Z,9.10
2022-11-27T18:56:35.104Z,9.45
2022-11-27T18:59:04.126Z,8.90
2022-11-27T19:01:39.589Z,9.98
2022-11-27T19:04:09.042Z,10.43
2022-11-27T19:06:37.445Z,10.10
2022-11-27T19:09:06.468Z,8.98
2022-11-27T19:11:36.233Z,9.55
2022-11-27T19:14:04.715Z,9.13
2022-11-27T19:16:34.427Z,9.13
2022-11-27T19:19:04.549Z,8.30
2022-11-27T19:21:34.259Z,8.77
2022-11-27T19:24:04.020Z,9.98
2022-11-27T19:26:36.050Z,9.70
2022-11-27T19:29:06.625Z,9.88
2022-11-27T19:31:36.897Z,10.77
2022-11-27T19:34:06.652Z,11.10
2022-11-27T19:36:36.079Z,11.07
2022-11-27T19:39:06.610Z,10.27
2022-11-27T19:41:36.469Z,10.75
2022-11-27T19:44:05.361Z,11.57
2022-11-27T19:46:34.970Z,13.07
2022-11-27T19:49:04.454Z,14.13
2022-11-27T19:51:35.566Z,15.20
2022-11-27T19:54:10.013Z,14.20
2022-11-27T19:56:40.560Z,15.65
2022-11-27T20:01:37.733Z,14.48
2022-11-27T20:04:06.124Z,15.52
2022-11-27T20:06:34.231Z,12.75
2022-11-27T20:09:04.648Z,14.70
2022-11-27T20:11:35.175Z,13.32
2022-11-27T20:14:05.468Z,13.43
2022-11-27T20:19:05.284Z,14.02
2022-11-27T20:21:33.236Z,13.45
2022-11-27T20:24:02.603Z,13.57
2022-11-27T20:26:31.003Z,13.73
2022-11-27T20:28:59.296Z,13.13
2022-11-27T20:31:31.063Z,13.90
2022-11-27T20:34:01.682Z,13.65
2022-11-27T20:36:30.991Z,13.77
2022-11-27T20:39:00.398Z,16.23
2022-11-27T20:41:29.234Z,12.93
2022-11-27T20:43:59.452Z,13.07
2022-11-27T20:48:57.634Z,13.80
2022-11-27T20:51:28.732Z,12.38
2022-11-27T20:53:58.182Z,13.73
2022-11-27T20:56:26.449Z,16.08
2022-11-27T20:58:54.513Z,12.98
2022-11-27T21:01:24.837Z,14.88
2022-11-27T21:03:55.430Z,14.98
2022-11-27T21:06:26.497Z,12.02
2022-11-27T21:08:55.106Z,13.38
2022-11-27T21:11:25.994Z,13.93
2022-11-27T21:13:55.964Z,14.05
2022-11-27T21:16:25.091Z,15.32
2022-11-27T21:18:55.161Z,13.15
2022-11-27T21:21:23.710Z,15.63
2022-11-27T21:23:51.606Z,12.68
2022-11-27T21:26:19.787Z,14.18
2022-11-27T21:28:48.345Z,13.73
2022-11-27T21:31:18.765Z,13.23
2022-11-27T21:33:47.826Z,15.50
2022-11-27T21:36:17.968Z,14.45
2022-11-27T21:41:17.758Z,14.00
2022-11-27T21:43:46.043Z,13.95
2022-11-27T21:46:17.486Z,15.90
2022-11-27T21:48:46.377Z,12.65
2022-11-27T21:51:16.492Z,15.50
2022-11-27T21:53:45.389Z,14.35
2022-11-27T21:56:19.750Z,14.60
2022-11-27T21:58:47.941Z,14.88
2022-11-27T22:01:17.397Z,13.35
2022-11-27T22:03:47.007Z,12.13
2022-11-27T22:06:17.401Z,14.25
2022-11-27T22:08:47.064Z,13.25
2022-11-27T22:11:16.538Z,13.82
2022-11-27T22:13:44.693Z,13.38
2022-11-27T22:16:14.251Z,12.35
2022-11-27T22:18:42.449Z,13.63
2022-11-27T22:21:11.858Z,13.25
2022-11-27T22:23:42.044Z,12.10
2022-11-27T22:26:12.820Z,13.35
2022-11-27T22:28:40.975Z,13.70
2022-11-27T22:31:10.200Z,13.20
2022-11-27T22:33:38.481Z,14.80
2022-11-27T22:36:17.106Z,12.93
2022-11-27T22:38:47.638Z,12.63
2022-11-27T22:41:16.632Z,12.98
2022-11-27T22:43:45.363Z,13.80
2022-11-27T22:46:15.603Z,14.25
2022-11-27T22:48:43.906Z,14.18
2022-11-27T22:51:11.864Z,15.15
2022-11-27T22:53:39.785Z,13.50
2022-11-27T22:56:11.811Z,13.90
2022-11-27T22:58:41.800Z,13.20
2022-11-27T23:01:14.920Z,13.10
2022-11-27T23:03:43.095Z,13.10
2022-11-27T23:06:12.819Z,13.77
2022-11-27T23:08:41.275Z,14.90
2022-11-27T23:11:13.890Z,14.60
2022-11-27T23:13:47.993Z,14.10
2022-11-27T23:16:17.622Z,14.48
2022-11-27T23:18:45.636Z,13.80
2022-11-27T23:21:15.252Z,11.80
2022-11-27T23:23:43.558Z,14.00
2022-11-27T23:26:18.078Z,13.40
2022-11-27T23:28:47.881Z,14.55
2022-11-27T23:31:33.192Z,13.70
2022-11-27T23:34:07.284Z,13.60
2022-11-27T23:36:36.031Z,14.98
2022-11-27T23:39:07.612Z,13.30
2022-11-27T23:41:37.163Z,13.98
2022-11-27T23:44:04.994Z,9.73
2022-11-27T23:46:32.974Z,11.77
2022-11-27T23:49:01.355Z,12.45
2022-11-27T23:51:31.612Z,12.32
2022-11-27T23:56:30.512Z,13.13
2022-11-27T23:59:00.783Z,11.63
